sensor_id;sensor_type;location;lat;lon;timestamp;temperature;humidity
78731;SHT31;68055;51.978;5.658;2023-09-07T00:00:55;24.0;59.1
78731;SHT31;68055;51.978;5.658;2023-09-07T00:03:23;24.0;58.8
78731;SHT31;68055;51.978;5.658;2023-09-07T00:05:52;24.0;59.5
78731;SHT31;68055;51.978;5.658;2023-09-07T00:08:20;24.0;59.4
78731;SHT31;68055;51.978;5.658;2023-09-07T00:10:52;24.0;59.1
78731;SHT31;68055;51.978;5.658;2023-09-07T00:13:21;24.0;59.2
78731;SHT31;68055;51.978;5.658;2023-09-07T00:15:50;24.0;58.9
78731;SHT31;68055;51.978;5.658;2023-09-07T00:18:18;23.9;59.1
78731;SHT31;68055;51.978;5.658;2023-09-07T00:20:47;23.9;59.1
78731;SHT31;68055;51.978;5.658;2023-09-07T00:23:16;23.9;59.1
78731;SHT31;68055;51.978;5.658;2023-09-07T00:25:46;23.9;58.6
78731;SHT31;68055;51.978;5.658;2023-09-07T00:28:14;23.8;59.0
78731;SHT31;68055;51.978;5.658;2023-09-07T00:30:43;23.8;59.8
78731;SHT31;68055;51.978;5.658;2023-09-07T00:33:11;23.8;59.9
78731;SHT31;68055;51.978;5.658;2023-09-07T00:35:40;23.8;60.2
78731;SHT31;68055;51.978;5.658;2023-09-07T00:38:08;23.8;59.6
78731;SHT31;68055;51.978;5.658;2023-09-07T00:40:38;23.7;59.8
78731;SHT31;68055;51.978;5.658;2023-09-07T00:43:06;23.7;59.7
78731;SHT31;68055;51.978;5.658;2023-09-07T00:45:36;23.7;60.1
78731;SHT31;68055;51.978;5.658;2023-09-07T00:48:05;23.7;59.9
78731;SHT31;68055;51.978;5.658;2023-09-07T00:50:34;23.7;60.0
78731;SHT31;68055;51.978;5.658;2023-09-07T00:53:03;23.6;59.9
78731;SHT31;68055;51.978;5.658;2023-09-07T00:55:32;23.6;60.1
78731;SHT31;68055;51.978;5.658;2023-09-07T00:58:02;23.6;60.1
78731;SHT31;68055;51.978;5.658;2023-09-07T01:00:32;23.6;60.0
78731;SHT31;68055;51.978;5.658;2023-09-07T01:03:00;23.6;60.5
78731;SHT31;68055;51.978;5.658;2023-09-07T01:05:34;23.5;60.4
78731;SHT31;68055;51.978;5.658;2023-09-07T01:08:19;23.5;60.5
78731;SHT31;68055;51.978;5.658;2023-09-07T01:10:51;23.5;60.8
78731;SHT31;68055;51.978;5.658;2023-09-07T01:13:20;23.5;60.7
78731;SHT31;68055;51.978;5.658;2023-09-07T01:15:49;23.5;60.6
78731;SHT31;68055;51.978;5.658;2023-09-07T01:18:19;23.4;60.5
78731;SHT31;68055;51.978;5.658;2023-09-07T01:20:49;23.4;60.4
78731;SHT31;68055;51.978;5.658;2023-09-07T01:23:18;23.4;61.0
78731;SHT31;68055;51.978;5.658;2023-09-07T01:25:47;23.4;60.8
78731;SHT31;68055;51.978;5.658;2023-09-07T01:28:17;23.4;60.4
78731;SHT31;68055;51.978;5.658;2023-09-07T01:30:49;23.4;60.4
78731;SHT31;68055;51.978;5.658;2023-09-07T01:33:19;23.3;60.8
78731;SHT31;68055;51.978;5.658;2023-09-07T01:35:48;23.3;60.7
78731;SHT31;68055;51.978;5.658;2023-09-07T01:38:17;23.3;60.7
78731;SHT31;68055;51.978;5.658;2023-09-07T01:40:45;23.3;60.6
78731;SHT31;68055;51.978;5.658;2023-09-07T01:43:15;23.2;60.6
78731;SHT31;68055;51.978;5.658;2023-09-07T01:45:43;23.2;60.6
78731;SHT31;68055;51.978;5.658;2023-09-07T01:48:14;23.2;60.7
78731;SHT31;68055;51.978;5.658;2023-09-07T01:50:43;23.2;60.7
78731;SHT31;68055;51.978;5.658;2023-09-07T01:53:11;23.1;60.4
78731;SHT31;68055;51.978;5.658;2023-09-07T01:55:40;23.1;61.1
78731;SHT31;68055;51.978;5.658;2023-09-07T01:58:08;23.1;60.5
78731;SHT31;68055;51.978;5.658;2023-09-07T02:00:40;23.1;60.4
78731;SHT31;68055;51.978;5.658;2023-09-07T02:03:08;23.0;60.6
78731;SHT31;68055;51.978;5.658;2023-09-07T02:05:37;23.0;60.5
78731;SHT31;68055;51.978;5.658;2023-09-07T02:08:08;23.0;60.9
78731;SHT31;68055;51.978;5.658;2023-09-07T02:10:36;23.0;60.7
78731;SHT31;68055;51.978;5.658;2023-09-07T02:13:05;23.0;60.9
78731;SHT31;68055;51.978;5.658;2023-09-07T02:15:37;22.9;61.1
78731;SHT31;68055;51.978;5.658;2023-09-07T02:18:06;22.9;61.1
78731;SHT31;68055;51.978;5.658;2023-09-07T02:20:35;22.9;60.8
78731;SHT31;68055;51.978;5.658;2023-09-07T02:23:05;22.9;61.0
78731;SHT31;68055;51.978;5.658;2023-09-07T02:25:34;22.8;61.3
78731;SHT31;68055;51.978;5.658;2023-09-07T02:28:03;22.8;61.0
78731;SHT31;68055;51.978;5.658;2023-09-07T02:30:32;22.8;61.2
78731;SHT31;68055;51.978;5.658;2023-09-07T02:33:01;22.8;61.5
78731;SHT31;68055;51.978;5.658;2023-09-07T02:35:30;22.8;61.0
78731;SHT31;68055;51.978;5.658;2023-09-07T02:37:59;22.7;61.0
78731;SHT31;68055;51.978;5.658;2023-09-07T02:40:28;22.7;61.6
78731;SHT31;68055;51.978;5.658;2023-09-07T02:42:56;22.7;61.1
78731;SHT31;68055;51.978;5.658;2023-09-07T02:45:25;22.7;61.3
78731;SHT31;68055;51.978;5.658;2023-09-07T02:47:53;22.6;61.4
78731;SHT31;68055;51.978;5.658;2023-09-07T02:50:22;22.6;61.4
78731;SHT31;68055;51.978;5.658;2023-09-07T02:52:50;22.6;61.5
78731;SHT31;68055;51.978;5.658;2023-09-07T02:55:19;22.6;61.8
78731;SHT31;68055;51.978;5.658;2023-09-07T02:57:47;22.6;61.4
78731;SHT31;68055;51.978;5.658;2023-09-07T03:00:16;22.6;61.6
78731;SHT31;68055;51.978;5.658;2023-09-07T03:02:45;22.6;61.6
78731;SHT31;68055;51.978;5.658;2023-09-07T03:05:17;22.5;61.7
78731;SHT31;68055;51.978;5.658;2023-09-07T03:07:46;22.5;61.8
78731;SHT31;68055;51.978;5.658;2023-09-07T03:10:15;22.5;61.4
78731;SHT31;68055;51.978;5.658;2023-09-07T03:12:44;22.5;61.9
78731;SHT31;68055;51.978;5.658;2023-09-07T03:15:13;22.5;61.6
78731;SHT31;68055;51.978;5.658;2023-09-07T03:17:41;22.5;62.0
78731;SHT31;68055;51.978;5.658;2023-09-07T03:20:11;22.4;62.0
78731;SHT31;68055;51.978;5.658;2023-09-07T03:22:42;22.4;62.2
78731;SHT31;68055;51.978;5.658;2023-09-07T03:25:12;22.4;61.8
78731;SHT31;68055;51.978;5.658;2023-09-07T03:27:41;22.4;62.3
78731;SHT31;68055;51.978;5.658;2023-09-07T03:30:13;22.4;62.0
78731;SHT31;68055;51.978;5.658;2023-09-07T03:32:43;22.4;62.1
78731;SHT31;68055;51.978;5.658;2023-09-07T03:35:12;22.4;62.2
78731;SHT31;68055;51.978;5.658;2023-09-07T03:37:42;22.4;61.8
78731;SHT31;68055;51.978;5.658;2023-09-07T03:40:11;22.3;62.2
78731;SHT31;68055;51.978;5.658;2023-09-07T03:42:40;22.3;62.6
78731;SHT31;68055;51.978;5.658;2023-09-07T03:45:10;22.3;62.0
78731;SHT31;68055;51.978;5.658;2023-09-07T03:47:39;22.3;61.9
78731;SHT31;68055;51.978;5.658;2023-09-07T03:50:08;22.3;62.2
78731;SHT31;68055;51.978;5.658;2023-09-07T03:52:37;22.3;62.0
78731;SHT31;68055;51.978;5.658;2023-09-07T03:55:09;22.3;61.2
78731;SHT31;68055;51.978;5.658;2023-09-07T03:57:37;22.2;62.1
78731;SHT31;68055;51.978;5.658;2023-09-07T04:00:07;22.2;62.0
78731;SHT31;68055;51.978;5.658;2023-09-07T04:02:37;22.2;61.9
78731;SHT31;68055;51.978;5.658;2023-09-07T04:05:07;22.2;61.7
78731;SHT31;68055;51.978;5.658;2023-09-07T04:07:37;22.2;61.8
78731;SHT31;68055;51.978;5.658;2023-09-07T04:10:06;22.2;61.7
78731;SHT31;68055;51.978;5.658;2023-09-07T04:12:36;22.2;61.8
78731;SHT31;68055;51.978;5.658;2023-09-07T04:15:05;22.1;61.4
78731;SHT31;68055;51.978;5.658;2023-09-07T04:17:34;22.1;62.0
78731;SHT31;68055;51.978;5.658;2023-09-07T04:20:07;22.1;62.1
78731;SHT31;68055;51.978;5.658;2023-09-07T04:22:38;22.1;62.4
78731;SHT31;68055;51.978;5.658;2023-09-07T04:25:07;22.1;62.3
78731;SHT31;68055;51.978;5.658;2023-09-07T04:27:38;22.1;62.3
78731;SHT31;68055;51.978;5.658;2023-09-07T04:30:08;22.1;61.9
78731;SHT31;68055;51.978;5.658;2023-09-07T04:32:37;22.0;61.9
78731;SHT31;68055;51.978;5.658;2023-09-07T04:35:08;22.0;61.8
78731;SHT31;68055;51.978;5.658;2023-09-07T04:37:37;22.0;62.1
78731;SHT31;68055;51.978;5.658;2023-09-07T04:40:06;22.0;61.8
78731;SHT31;68055;51.978;5.658;2023-09-07T04:42:36;22.0;61.8
78731;SHT31;68055;51.978;5.658;2023-09-07T04:45:05;22.0;61.8
78731;SHT31;68055;51.978;5.658;2023-09-07T04:47:36;21.9;62.1
78731;SHT31;68055;51.978;5.658;2023-09-07T04:50:05;21.9;62.1
78731;SHT31;68055;51.978;5.658;2023-09-07T04:52:34;21.9;62.1
78731;SHT31;68055;51.978;5.658;2023-09-07T04:55:03;21.9;62.1
78731;SHT31;68055;51.978;5.658;2023-09-07T04:57:32;21.9;62.0
78731;SHT31;68055;51.978;5.658;2023-09-07T05:00:01;21.9;62.3
78731;SHT31;68055;51.978;5.658;2023-09-07T05:02:30;21.8;62.1
78731;SHT31;68055;51.978;5.658;2023-09-07T05:04:58;21.8;62.2
78731;SHT31;68055;51.978;5.658;2023-09-07T05:07:27;21.8;62.1
78731;SHT31;68055;51.978;5.658;2023-09-07T05:09:56;21.8;62.1
78731;SHT31;68055;51.978;5.658;2023-09-07T05:12:24;21.8;62.2
78731;SHT31;68055;51.978;5.658;2023-09-07T05:14:53;21.8;61.9
78731;SHT31;68055;51.978;5.658;2023-09-07T05:17:21;21.8;61.9
78731;SHT31;68055;51.978;5.658;2023-09-07T05:19:50;21.7;61.7
78731;SHT31;68055;51.978;5.658;2023-09-07T05:22:18;21.7;61.7
78731;SHT31;68055;51.978;5.658;2023-09-07T05:24:49;21.7;61.8
78731;SHT31;68055;51.978;5.658;2023-09-07T05:27:18;21.7;62.1
78731;SHT31;68055;51.978;5.658;2023-09-07T05:29:46;21.7;61.7
78731;SHT31;68055;51.978;5.658;2023-09-07T05:32:15;21.7;62.1
78731;SHT31;68055;51.978;5.658;2023-09-07T05:34:43;21.7;61.9
78731;SHT31;68055;51.978;5.658;2023-09-07T05:37:12;21.7;61.8
78731;SHT31;68055;51.978;5.658;2023-09-07T05:39:40;21.7;61.7
78731;SHT31;68055;51.978;5.658;2023-09-07T05:42:09;21.7;61.9
78731;SHT31;68055;51.978;5.658;2023-09-07T05:44:38;21.7;61.7
78731;SHT31;68055;51.978;5.658;2023-09-07T05:47:09;21.7;61.6
78731;SHT31;68055;51.978;5.658;2023-09-07T05:49:38;21.7;61.7
78731;SHT31;68055;51.978;5.658;2023-09-07T05:52:07;21.7;61.2
78731;SHT31;68055;51.978;5.658;2023-09-07T05:54:36;21.7;61.6
78731;SHT31;68055;51.978;5.658;2023-09-07T05:57:05;21.7;61.4
78731;SHT31;68055;51.978;5.658;2023-09-07T05:59:33;21.7;61.6
78731;SHT31;68055;51.978;5.658;2023-09-07T06:02:02;21.7;62.2
78731;SHT31;68055;51.978;5.658;2023-09-07T06:04:30;21.7;61.7
78731;SHT31;68055;51.978;5.658;2023-09-07T06:06:59;21.8;61.3
78731;SHT31;68055;51.978;5.658;2023-09-07T06:09:27;21.8;61.4
78731;SHT31;68055;51.978;5.658;2023-09-07T06:11:57;21.8;61.3
78731;SHT31;68055;51.978;5.658;2023-09-07T06:14:25;21.8;61.4
78731;SHT31;68055;51.978;5.658;2023-09-07T06:16:54;21.8;61.0
78731;SHT31;68055;51.978;5.658;2023-09-07T06:19:22;21.8;61.3
78731;SHT31;68055;51.978;5.658;2023-09-07T06:21:51;21.9;61.3
78731;SHT31;68055;51.978;5.658;2023-09-07T06:24:19;21.9;61.4
78731;SHT31;68055;51.978;5.658;2023-09-07T06:26:48;21.9;61.5
78731;SHT31;68055;51.978;5.658;2023-09-07T06:29:16;22.0;61.2
78731;SHT31;68055;51.978;5.658;2023-09-07T06:31:45;22.0;61.3
78731;SHT31;68055;51.978;5.658;2023-09-07T06:34:16;22.0;61.2
78731;SHT31;68055;51.978;5.658;2023-09-07T06:36:45;22.1;61.2
78731;SHT31;68055;51.978;5.658;2023-09-07T06:39:13;22.1;61.2
78731;SHT31;68055;51.978;5.658;2023-09-07T06:41:45;22.2;61.3
78731;SHT31;68055;51.978;5.658;2023-09-07T06:44:14;22.2;61.1
78731;SHT31;68055;51.978;5.658;2023-09-07T06:46:43;22.3;60.5
78731;SHT31;68055;51.978;5.658;2023-09-07T06:49:12;22.4;60.8
78731;SHT31;68055;51.978;5.658;2023-09-07T06:51:41;22.5;60.0
78731;SHT31;68055;51.978;5.658;2023-09-07T06:54:09;22.6;59.8
78731;SHT31;68055;51.978;5.658;2023-09-07T06:56:39;22.7;59.8
78731;SHT31;68055;51.978;5.658;2023-09-07T06:59:08;22.9;59.5
78731;SHT31;68055;51.978;5.658;2023-09-07T07:01:38;23.1;60.0
78731;SHT31;68055;51.978;5.658;2023-09-07T07:04:07;23.3;59.3
78731;SHT31;68055;51.978;5.658;2023-09-07T07:06:36;23.5;59.3
78731;SHT31;68055;51.978;5.658;2023-09-07T07:09:05;23.7;58.4
78731;SHT31;68055;51.978;5.658;2023-09-07T07:11:35;23.9;57.9
78731;SHT31;68055;51.978;5.658;2023-09-07T07:14:05;24.1;57.3
78731;SHT31;68055;51.978;5.658;2023-09-07T07:16:35;24.3;56.8
78731;SHT31;68055;51.978;5.658;2023-09-07T07:19:03;24.5;56.5
78731;SHT31;68055;51.978;5.658;2023-09-07T07:21:32;24.6;56.4
78731;SHT31;68055;51.978;5.658;2023-09-07T07:24:02;24.8;55.0
78731;SHT31;68055;51.978;5.658;2023-09-07T07:26:32;24.9;55.5
78731;SHT31;68055;51.978;5.658;2023-09-07T07:29:01;25.1;55.2
78731;SHT31;68055;51.978;5.658;2023-09-07T07:31:29;25.3;54.6
78731;SHT31;68055;51.978;5.658;2023-09-07T07:33:58;25.5;54.7
78731;SHT31;68055;51.978;5.658;2023-09-07T07:36:27;25.7;53.9
78731;SHT31;68055;51.978;5.658;2023-09-07T07:38:55;25.9;53.0
78731;SHT31;68055;51.978;5.658;2023-09-07T07:41:24;26.1;52.1
78731;SHT31;68055;51.978;5.658;2023-09-07T07:43:52;26.2;51.8
78731;SHT31;68055;51.978;5.658;2023-09-07T07:46:21;26.3;52.1
78731;SHT31;68055;51.978;5.658;2023-09-07T07:48:49;26.4;51.6
78731;SHT31;68055;51.978;5.658;2023-09-07T07:51:18;26.6;51.1
78731;SHT31;68055;51.978;5.658;2023-09-07T07:53:47;26.7;50.8
78731;SHT31;68055;51.978;5.658;2023-09-07T07:56:18;26.8;50.6
78731;SHT31;68055;51.978;5.658;2023-09-07T07:58:47;26.8;50.1
78731;SHT31;68055;51.978;5.658;2023-09-07T08:01:18;26.9;50.3
78731;SHT31;68055;51.978;5.658;2023-09-07T08:03:47;27.0;50.5
78731;SHT31;68055;51.978;5.658;2023-09-07T08:06:15;27.1;49.3
78731;SHT31;68055;51.978;5.658;2023-09-07T08:08:44;27.3;49.2
78731;SHT31;68055;51.978;5.658;2023-09-07T08:11:14;27.4;49.1
78731;SHT31;68055;51.978;5.658;2023-09-07T08:13:43;27.5;48.7
78731;SHT31;68055;51.978;5.658;2023-09-07T08:16:13;27.6;47.5
78731;SHT31;68055;51.978;5.658;2023-09-07T08:18:42;27.8;47.6
78731;SHT31;68055;51.978;5.658;2023-09-07T08:21:13;27.9;47.5
78731;SHT31;68055;51.978;5.658;2023-09-07T08:23:42;28.0;46.8
78731;SHT31;68055;51.978;5.658;2023-09-07T08:26:11;28.2;46.3
78731;SHT31;68055;51.978;5.658;2023-09-07T08:28:41;28.3;46.5
78731;SHT31;68055;51.978;5.658;2023-09-07T08:31:12;28.5;45.6
78731;SHT31;68055;51.978;5.658;2023-09-07T08:33:46;28.6;45.1
78731;SHT31;68055;51.978;5.658;2023-09-07T08:36:17;28.8;45.3
78731;SHT31;68055;51.978;5.658;2023-09-07T08:38:50;28.9;45.6
78731;SHT31;68055;51.978;5.658;2023-09-07T08:41:20;29.1;45.1
78731;SHT31;68055;51.978;5.658;2023-09-07T08:43:49;29.3;45.3
78731;SHT31;68055;51.978;5.658;2023-09-07T08:46:23;29.5;44.5
78731;SHT31;68055;51.978;5.658;2023-09-07T08:48:52;29.7;44.8
78731;SHT31;68055;51.978;5.658;2023-09-07T08:51:26;29.9;43.8
78731;SHT31;68055;51.978;5.658;2023-09-07T08:53:56;30.1;43.4
78731;SHT31;68055;51.978;5.658;2023-09-07T08:56:25;30.3;43.8
78731;SHT31;68055;51.978;5.658;2023-09-07T08:58:56;30.5;42.6
78731;SHT31;68055;51.978;5.658;2023-09-07T09:01:24;30.7;43.0
78731;SHT31;68055;51.978;5.658;2023-09-07T09:03:54;30.9;42.5
78731;SHT31;68055;51.978;5.658;2023-09-07T09:06:23;31.2;42.8
78731;SHT31;68055;51.978;5.658;2023-09-07T09:08:54;31.4;42.0
78731;SHT31;68055;51.978;5.658;2023-09-07T09:11:24;31.6;41.8
78731;SHT31;68055;51.978;5.658;2023-09-07T09:13:54;31.8;41.4
78731;SHT31;68055;51.978;5.658;2023-09-07T09:16:23;32.0;41.5
78731;SHT31;68055;51.978;5.658;2023-09-07T09:18:53;32.2;41.1
78731;SHT31;68055;51.978;5.658;2023-09-07T09:21:23;32.4;39.8
78731;SHT31;68055;51.978;5.658;2023-09-07T09:23:54;32.6;39.8
78731;SHT31;68055;51.978;5.658;2023-09-07T09:26:23;32.8;39.2
78731;SHT31;68055;51.978;5.658;2023-09-07T09:28:55;32.9;38.6
78731;SHT31;68055;51.978;5.658;2023-09-07T09:31:24;33.1;39.0
78731;SHT31;68055;51.978;5.658;2023-09-07T09:33:53;33.2;38.4
78731;SHT31;68055;51.978;5.658;2023-09-07T09:36:24;33.4;38.9
78731;SHT31;68055;51.978;5.658;2023-09-07T09:38:52;33.5;37.6
78731;SHT31;68055;51.978;5.658;2023-09-07T09:41:22;33.7;37.5
78731;SHT31;68055;51.978;5.658;2023-09-07T09:43:52;33.9;37.7
78731;SHT31;68055;51.978;5.658;2023-09-07T09:46:22;34.2;36.5
78731;SHT31;68055;51.978;5.658;2023-09-07T09:48:51;34.3;35.4
78731;SHT31;68055;51.978;5.658;2023-09-07T09:51:20;34.4;35.4
78731;SHT31;68055;51.978;5.658;2023-09-07T09:53:50;34.5;35.5
78731;SHT31;68055;51.978;5.658;2023-09-07T09:56:19;34.6;34.9
78731;SHT31;68055;51.978;5.658;2023-09-07T09:58:49;34.8;34.5
78731;SHT31;68055;51.978;5.658;2023-09-07T10:01:18;34.9;34.5
78731;SHT31;68055;51.978;5.658;2023-09-07T10:03:48;34.9;33.9
78731;SHT31;68055;51.978;5.658;2023-09-07T10:06:24;35.0;34.3
78731;SHT31;68055;51.978;5.658;2023-09-07T10:08:58;35.0;33.9
78731;SHT31;68055;51.978;5.658;2023-09-07T10:11:32;34.8;34.4
78731;SHT31;68055;51.978;5.658;2023-09-07T10:14:02;34.6;34.8
78731;SHT31;68055;51.978;5.658;2023-09-07T10:16:42;34.4;35.2
78731;SHT31;68055;51.978;5.658;2023-09-07T10:19:20;34.2;35.5
78731;SHT31;68055;51.978;5.658;2023-09-07T10:21:50;33.9;36.2
78731;SHT31;68055;51.978;5.658;2023-09-07T10:24:26;33.7;37.1
78731;SHT31;68055;51.978;5.658;2023-09-07T10:27:00;33.5;37.4
78731;SHT31;68055;51.978;5.658;2023-09-07T10:29:39;33.4;37.8
78731;SHT31;68055;51.978;5.658;2023-09-07T10:32:07;33.2;38.2
78731;SHT31;68055;51.978;5.658;2023-09-07T10:34:39;33.0;38.5
78731;SHT31;68055;51.978;5.658;2023-09-07T10:37:10;32.9;38.1
78731;SHT31;68055;51.978;5.658;2023-09-07T10:39:40;32.8;38.6
78731;SHT31;68055;51.978;5.658;2023-09-07T10:42:22;32.7;38.6
78731;SHT31;68055;51.978;5.658;2023-09-07T10:44:52;32.5;39.3
78731;SHT31;68055;51.978;5.658;2023-09-07T10:47:21;32.4;39.3
78731;SHT31;68055;51.978;5.658;2023-09-07T10:49:50;32.3;39.7
78731;SHT31;68055;51.978;5.658;2023-09-07T10:52:19;32.3;39.8
78731;SHT31;68055;51.978;5.658;2023-09-07T10:54:57;32.2;39.9
78731;SHT31;68055;51.978;5.658;2023-09-07T10:57:26;32.1;39.9
78731;SHT31;68055;51.978;5.658;2023-09-07T10:59:55;32.0;40.2
78731;SHT31;68055;51.978;5.658;2023-09-07T11:02:23;32.0;39.9
78731;SHT31;68055;51.978;5.658;2023-09-07T11:04:52;31.9;40.2
78731;SHT31;68055;51.978;5.658;2023-09-07T11:07:21;31.8;40.5
78731;SHT31;68055;51.978;5.658;2023-09-07T11:09:51;31.8;41.0
78731;SHT31;68055;51.978;5.658;2023-09-07T11:12:21;31.8;40.7
78731;SHT31;68055;51.978;5.658;2023-09-07T11:14:50;31.7;40.1
78731;SHT31;68055;51.978;5.658;2023-09-07T11:17:29;31.7;40.1
78731;SHT31;68055;51.978;5.658;2023-09-07T11:19:57;31.7;39.0
78731;SHT31;68055;51.978;5.658;2023-09-07T11:22:26;31.6;38.5
78731;SHT31;68055;51.978;5.658;2023-09-07T11:24:54;31.6;38.3
78731;SHT31;68055;51.978;5.658;2023-09-07T11:27:25;31.6;38.5
78731;SHT31;68055;51.978;5.658;2023-09-07T11:29:57;31.6;38.1
78731;SHT31;68055;51.978;5.658;2023-09-07T11:32:36;31.5;38.5
78731;SHT31;68055;51.978;5.658;2023-09-07T11:35:07;31.5;39.7
78731;SHT31;68055;51.978;5.658;2023-09-07T11:37:37;31.5;39.0
78731;SHT31;68055;51.978;5.658;2023-09-07T11:40:07;31.5;39.2
78731;SHT31;68055;51.978;5.658;2023-09-07T11:42:40;31.5;38.7
78731;SHT31;68055;51.978;5.658;2023-09-07T11:45:10;31.4;38.7
78731;SHT31;68055;51.978;5.658;2023-09-07T11:47:39;31.4;38.9
78731;SHT31;68055;51.978;5.658;2023-09-07T11:50:09;31.4;38.9
78731;SHT31;68055;51.978;5.658;2023-09-07T11:52:37;31.4;39.3
78731;SHT31;68055;51.978;5.658;2023-09-07T11:55:06;31.4;39.1
78731;SHT31;68055;51.978;5.658;2023-09-07T11:57:37;31.4;38.8
78731;SHT31;68055;51.978;5.658;2023-09-07T12:00:08;31.3;39.3
78731;SHT31;68055;51.978;5.658;2023-09-07T12:02:39;31.3;39.0
78731;SHT31;68055;51.978;5.658;2023-09-07T12:05:08;31.3;39.3
78731;SHT31;68055;51.978;5.658;2023-09-07T12:07:41;31.3;39.2
78731;SHT31;68055;51.978;5.658;2023-09-07T12:10:12;31.3;39.9
78731;SHT31;68055;51.978;5.658;2023-09-07T12:12:41;31.3;39.4
78731;SHT31;68055;51.978;5.658;2023-09-07T12:15:11;31.3;39.8
78731;SHT31;68055;51.978;5.658;2023-09-07T12:17:40;31.3;38.5
78731;SHT31;68055;51.978;5.658;2023-09-07T12:20:09;31.3;39.1
78731;SHT31;68055;51.978;5.658;2023-09-07T12:22:40;31.3;38.8
78731;SHT31;68055;51.978;5.658;2023-09-07T12:25:11;31.3;39.3
78731;SHT31;68055;51.978;5.658;2023-09-07T12:27:41;31.3;38.9
78731;SHT31;68055;51.978;5.658;2023-09-07T12:30:12;31.3;38.9
78731;SHT31;68055;51.978;5.658;2023-09-07T12:32:42;31.3;39.0
78731;SHT31;68055;51.978;5.658;2023-09-07T12:35:11;31.3;39.1
78731;SHT31;68055;51.978;5.658;2023-09-07T12:37:41;31.3;39.1
78731;SHT31;68055;51.978;5.658;2023-09-07T12:40:11;31.3;39.5
78731;SHT31;68055;51.978;5.658;2023-09-07T12:42:43;31.3;39.2
78731;SHT31;68055;51.978;5.658;2023-09-07T12:45:15;31.3;39.3
78731;SHT31;68055;51.978;5.658;2023-09-07T12:47:45;31.3;38.9
78731;SHT31;68055;51.978;5.658;2023-09-07T12:50:14;31.3;39.7
78731;SHT31;68055;51.978;5.658;2023-09-07T12:52:42;31.3;39.7
78731;SHT31;68055;51.978;5.658;2023-09-07T12:55:11;31.3;39.1
78731;SHT31;68055;51.978;5.658;2023-09-07T12:57:41;31.3;39.7
78731;SHT31;68055;51.978;5.658;2023-09-07T13:00:11;31.3;40.4
78731;SHT31;68055;51.978;5.658;2023-09-07T13:02:42;31.3;39.5
78731;SHT31;68055;51.978;5.658;2023-09-07T13:05:11;31.3;39.7
78731;SHT31;68055;51.978;5.658;2023-09-07T13:07:39;31.3;38.9
78731;SHT31;68055;51.978;5.658;2023-09-07T13:10:10;31.3;39.1
78731;SHT31;68055;51.978;5.658;2023-09-07T13:12:39;31.4;38.6
78731;SHT31;68055;51.978;5.658;2023-09-07T13:15:12;31.4;38.2
78731;SHT31;68055;51.978;5.658;2023-09-07T13:17:40;31.4;38.7
78731;SHT31;68055;51.978;5.658;2023-09-07T13:20:11;31.5;38.0
78731;SHT31;68055;51.978;5.658;2023-09-07T13:22:45;31.6;38.3
78731;SHT31;68055;51.978;5.658;2023-09-07T13:25:16;31.7;38.2
78731;SHT31;68055;51.978;5.658;2023-09-07T13:27:44;31.8;37.9
78731;SHT31;68055;51.978;5.658;2023-09-07T13:30:13;31.8;37.7
78731;SHT31;68055;51.978;5.658;2023-09-07T13:32:42;31.8;37.1
78731;SHT31;68055;51.978;5.658;2023-09-07T13:35:13;31.8;37.9
78731;SHT31;68055;51.978;5.658;2023-09-07T13:37:42;31.8;37.9
78731;SHT31;68055;51.978;5.658;2023-09-07T13:40:11;31.8;38.4
78731;SHT31;68055;51.978;5.658;2023-09-07T13:42:41;31.8;38.0
78731;SHT31;68055;51.978;5.658;2023-09-07T13:45:12;31.7;37.9
78731;SHT31;68055;51.978;5.658;2023-09-07T13:47:41;31.7;37.9
78731;SHT31;68055;51.978;5.658;2023-09-07T13:50:09;31.7;37.4
78731;SHT31;68055;51.978;5.658;2023-09-07T13:52:38;31.7;37.1
78731;SHT31;68055;51.978;5.658;2023-09-07T13:55:08;31.7;36.9
78731;SHT31;68055;51.978;5.658;2023-09-07T13:57:36;31.6;37.2
78731;SHT31;68055;51.978;5.658;2023-09-07T14:00:06;31.6;36.8
78731;SHT31;68055;51.978;5.658;2023-09-07T14:02:37;31.6;36.7
78731;SHT31;68055;51.978;5.658;2023-09-07T14:05:07;31.6;37.5
78731;SHT31;68055;51.978;5.658;2023-09-07T14:07:36;31.6;37.1
78731;SHT31;68055;51.978;5.658;2023-09-07T14:10:05;31.7;36.9
78731;SHT31;68055;51.978;5.658;2023-09-07T14:12:34;31.7;37.6
78731;SHT31;68055;51.978;5.658;2023-09-07T14:15:03;31.6;36.8
78731;SHT31;68055;51.978;5.658;2023-09-07T14:17:31;31.6;37.7
78731;SHT31;68055;51.978;5.658;2023-09-07T14:20:00;31.6;38.1
78731;SHT31;68055;51.978;5.658;2023-09-07T14:22:29;31.6;37.9
78731;SHT31;68055;51.978;5.658;2023-09-07T14:24:57;31.6;38.5
78731;SHT31;68055;51.978;5.658;2023-09-07T14:27:26;31.5;37.9
78731;SHT31;68055;51.978;5.658;2023-09-07T14:29:54;31.5;38.7
78731;SHT31;68055;51.978;5.658;2023-09-07T14:32:23;31.5;38.5
78731;SHT31;68055;51.978;5.658;2023-09-07T14:34:51;31.5;38.7
78731;SHT31;68055;51.978;5.658;2023-09-07T14:37:21;31.5;39.3
78731;SHT31;68055;51.978;5.658;2023-09-07T14:39:49;31.5;39.3
78731;SHT31;68055;51.978;5.658;2023-09-07T14:42:22;31.5;38.7
78731;SHT31;68055;51.978;5.658;2023-09-07T14:44:52;31.5;39.0
78731;SHT31;68055;51.978;5.658;2023-09-07T14:47:24;31.6;39.4
78731;SHT31;68055;51.978;5.658;2023-09-07T14:49:53;31.6;38.9
78731;SHT31;68055;51.978;5.658;2023-09-07T14:52:22;31.6;39.0
78731;SHT31;68055;51.978;5.658;2023-09-07T14:54:51;31.6;39.0
78731;SHT31;68055;51.978;5.658;2023-09-07T14:57:20;31.6;38.9
78731;SHT31;68055;51.978;5.658;2023-09-07T14:59:48;31.6;39.1
78731;SHT31;68055;51.978;5.658;2023-09-07T15:02:17;31.6;38.8
78731;SHT31;68055;51.978;5.658;2023-09-07T15:04:46;31.6;38.9
78731;SHT31;68055;51.978;5.658;2023-09-07T15:07:15;31.6;38.9
78731;SHT31;68055;51.978;5.658;2023-09-07T15:09:43;31.6;39.7
78731;SHT31;68055;51.978;5.658;2023-09-07T15:12:14;31.5;39.8
78731;SHT31;68055;51.978;5.658;2023-09-07T15:14:43;31.5;39.8
78731;SHT31;68055;51.978;5.658;2023-09-07T15:17:12;31.5;39.5
78731;SHT31;68055;51.978;5.658;2023-09-07T15:19:42;31.5;40.1
78731;SHT31;68055;51.978;5.658;2023-09-07T15:22:11;31.4;39.9
78731;SHT31;68055;51.978;5.658;2023-09-07T15:24:40;31.4;39.6
78731;SHT31;68055;51.978;5.658;2023-09-07T15:27:12;31.4;39.9
78731;SHT31;68055;51.978;5.658;2023-09-07T15:29:41;31.4;40.1
78731;SHT31;68055;51.978;5.658;2023-09-07T15:32:11;31.4;39.7
78731;SHT31;68055;51.978;5.658;2023-09-07T15:34:40;31.4;40.0
78731;SHT31;68055;51.978;5.658;2023-09-07T15:37:10;31.3;40.2
78731;SHT31;68055;51.978;5.658;2023-09-07T15:39:39;31.3;39.7
78731;SHT31;68055;51.978;5.658;2023-09-07T15:42:11;31.3;40.1
78731;SHT31;68055;51.978;5.658;2023-09-07T15:44:41;31.3;40.3
78731;SHT31;68055;51.978;5.658;2023-09-07T15:47:13;31.3;40.9
78731;SHT31;68055;51.978;5.658;2023-09-07T15:49:43;31.3;40.4
78731;SHT31;68055;51.978;5.658;2023-09-07T15:52:17;31.3;41.1
78731;SHT31;68055;51.978;5.658;2023-09-07T15:54:48;31.3;41.0
78731;SHT31;68055;51.978;5.658;2023-09-07T15:57:19;31.3;41.0
78731;SHT31;68055;51.978;5.658;2023-09-07T15:59:48;31.4;40.5
78731;SHT31;68055;51.978;5.658;2023-09-07T16:02:17;31.4;40.6
78731;SHT31;68055;51.978;5.658;2023-09-07T16:04:47;31.5;40.5
78731;SHT31;68055;51.978;5.658;2023-09-07T16:07:16;31.5;40.7
78731;SHT31;68055;51.978;5.658;2023-09-07T16:09:44;31.5;40.7
78731;SHT31;68055;51.978;5.658;2023-09-07T16:12:13;31.5;40.6
78731;SHT31;68055;51.978;5.658;2023-09-07T16:14:41;31.5;40.6
78731;SHT31;68055;51.978;5.658;2023-09-07T16:17:10;31.5;40.6